createdAt,value
2023-05-13T00:01:28.424Z,12.20
2023-05-13T00:03:58.083Z,12.20
2023-05-13T00:06:25.186Z,12.20
2023-05-13T00:08:55.033Z,12.00
2023-05-13T00:11:24.535Z,12.00
2023-05-13T00:13:54.388Z,12.00
2023-05-13T00:16:23.725Z,11.90
2023-05-13T00:18:53.482Z,11.90
2023-05-13T00:21:20.522Z,11.90
2023-05-13T00:23:47.909Z,11.90
2023-05-13T00:26:14.927Z,11.90
2023-05-13T00:28:42.271Z,11.90
2023-05-13T00:31:09.488Z,11.90
2023-05-13T00:33:36.895Z,11.90
2023-05-13T00:36:04.119Z,11.90
2023-05-13T00:38:31.816Z,11.80
2023-05-13T00:40:58.902Z,11.70
2023-05-13T00:43:26.273Z,11.70
2023-05-13T00:45:55.871Z,11.60
2023-05-13T00:48:23.830Z,11.60
2023-05-13T00:50:50.958Z,11.60
2023-05-13T00:53:20.968Z,11.50
2023-05-13T00:55:52.458Z,11.50
2023-05-13T00:58:22.044Z,11.50
2023-05-13T01:01:13.768Z,11.40
2023-05-13T01:03:49.536Z,11.40
2023-05-13T01:06:44.980Z,11.40
2023-05-13T01:09:33.768Z,11.30
2023-05-13T01:12:12.871Z,11.60
2023-05-13T01:14:54.211Z,10.90
2023-05-13T01:17:30.887Z,11.20
2023-05-13T01:20:00.265Z,11.20
2023-05-13T01:22:27.380Z,11.10
2023-05-13T01:24:54.744Z,11.10
2023-05-13T01:27:21.835Z,11.10
2023-05-13T01:29:50.158Z,11.10
2023-05-13T01:32:21.581Z,11.00
2023-05-13T01:34:52.405Z,11.00
2023-05-13T01:37:20.316Z,10.90
2023-05-13T01:39:48.366Z,10.80
2023-05-13T01:42:18.011Z,10.80
2023-05-13T01:47:12.886Z,10.50
2023-05-13T01:52:10.032Z,10.80
2023-05-13T01:57:05.144Z,10.50
2023-05-13T01:59:34.768Z,10.70
2023-05-13T02:06:59.415Z,10.60
2023-05-13T02:09:28.951Z,10.50
2023-05-13T02:11:56.170Z,10.60
2023-05-13T02:14:23.036Z,10.90
2023-05-13T02:16:53.284Z,10.60
2023-05-13T02:19:20.453Z,10.60
2023-05-13T02:21:47.905Z,10.50
2023-05-13T02:24:14.949Z,10.60
2023-05-13T02:26:42.351Z,10.70
2023-05-13T02:29:09.379Z,10.60
2023-05-13T02:31:36.773Z,10.60
2023-05-13T02:34:04.047Z,10.80
2023-05-13T02:36:31.422Z,10.60
2023-05-13T02:38:58.450Z,10.60
2023-05-13T02:41:25.786Z,8.10
2023-05-13T02:43:52.817Z,10.60
2023-05-13T02:46:20.231Z,10.60
2023-05-13T02:51:15.016Z,10.70
2023-05-13T02:53:42.115Z,10.60
2023-05-13T02:56:11.981Z,10.60
2023-05-13T02:58:39.147Z,10.60
2023-05-13T03:03:42.392Z,10.60
2023-05-13T03:06:12.149Z,10.50
2023-05-13T03:08:39.226Z,10.60
2023-05-13T03:11:06.639Z,10.60
2023-05-13T03:13:33.798Z,10.60
2023-05-13T03:16:03.428Z,10.50
2023-05-13T03:18:30.490Z,10.40
2023-05-13T03:20:57.929Z,10.40
2023-05-13T03:23:27.473Z,10.40
2023-05-13T03:25:54.827Z,10.40
2023-05-13T03:28:21.952Z,10.40
2023-05-13T03:30:49.326Z,10.50
2023-05-13T03:33:18.649Z,10.60
2023-05-13T03:35:46.164Z,10.80
2023-05-13T03:38:13.169Z,10.80
2023-05-13T03:40:40.722Z,11.00
2023-05-13T03:43:07.986Z,11.20
2023-05-13T03:45:45.536Z,11.30
2023-05-13T03:48:12.645Z,11.40
2023-05-13T03:50:40.402Z,11.60
2023-05-13T03:53:10.570Z,11.60
2023-05-13T03:55:38.065Z,11.60
2023-05-13T03:58:12.596Z,11.60
2023-05-13T04:00:44.659Z,11.60
2023-05-13T04:03:15.041Z,11.70
2023-05-13T04:05:42.948Z,11.90
2023-05-13T04:08:09.954Z,12.00
2023-05-13T04:10:40.020Z,12.00
2023-05-13T04:13:10.036Z,12.00
2023-05-13T04:15:37.614Z,11.90
2023-05-13T04:18:04.730Z,11.80
2023-05-13T04:20:32.120Z,11.70
2023-05-13T04:22:59.178Z,11.70
2023-05-13T04:25:26.467Z,11.60
2023-05-13T04:27:53.723Z,11.60
2023-05-13T04:30:21.359Z,11.70
2023-05-13T04:32:48.630Z,11.50
2023-05-13T04:35:18.628Z,11.60
2023-05-13T04:37:48.209Z,11.60
2023-05-13T04:40:15.934Z,11.60
2023-05-13T04:42:42.983Z,11.70
2023-05-13T04:45:10.662Z,11.70
2023-05-13T04:47:38.138Z,11.70
2023-05-13T04:50:06.173Z,11.70
2023-05-13T04:52:33.591Z,11.70
2023-05-13T04:55:01.018Z,11.70
2023-05-13T04:57:28.049Z,11.50
2023-05-13T04:59:55.453Z,11.50
2023-05-13T05:28:29.640Z,12.70
2023-05-13T05:30:59.255Z,12.80
2023-05-13T05:33:26.417Z,12.90
2023-05-13T05:35:56.633Z,13.00
2023-05-13T05:38:23.685Z,13.50
2023-05-13T05:40:53.715Z,13.10
2023-05-13T05:43:20.846Z,13.30
2023-05-13T05:45:50.900Z,13.30
2023-05-13T05:48:20.429Z,13.50
2023-05-13T05:50:50.328Z,13.50
2023-05-13T05:53:17.397Z,14.00
2023-05-13T05:55:46.991Z,14.00
2023-05-13T05:58:17.263Z,14.00
2023-05-13T06:00:44.733Z,14.20
2023-05-13T06:03:14.266Z,14.30
2023-05-13T06:05:47.098Z,14.50
2023-05-13T06:08:14.267Z,15.00
2023-05-13T06:10:41.590Z,15.40
2023-05-13T06:13:08.619Z,15.60
2023-05-13T06:15:38.125Z,15.80
2023-05-13T06:18:05.615Z,16.80
2023-05-13T06:20:33.140Z,16.90
2023-05-13T06:23:02.390Z,17.70
2023-05-13T06:25:32.000Z,19.20
2023-05-13T06:28:00.798Z,20.80
2023-05-13T06:30:29.569Z,21.90
2023-05-13T06:33:02.188Z,23.20
2023-05-13T06:35:30.372Z,23.70
2023-05-13T06:37:57.683Z,24.60
2023-05-13T06:40:25.230Z,25.60
2023-05-13T06:42:54.578Z,26.50
2023-05-13T06:45:22.023Z,27.30
2023-05-13T06:47:51.012Z,27.90
2023-05-13T06:50:21.165Z,28.30
2023-05-13T06:52:48.467Z,28.50
2023-05-13T06:55:15.889Z,27.40
2023-05-13T06:57:43.734Z,26.80
2023-05-13T07:00:11.781Z,25.70
2023-05-13T07:02:38.928Z,24.30
2023-05-13T07:05:07.825Z,22.90
2023-05-13T07:07:41.067Z,21.90
2023-05-13T07:10:08.683Z,20.90
2023-05-13T07:12:35.792Z,20.30
2023-05-13T07:15:03.180Z,19.90
2023-05-13T07:17:32.611Z,19.60
2023-05-13T07:20:02.288Z,19.30
2023-05-13T07:22:29.328Z,19.20
2023-05-13T07:24:57.075Z,19.40
2023-05-13T07:27:24.171Z,19.80
2023-05-13T07:29:54.007Z,19.80
2023-05-13T07:32:21.126Z,19.60
2023-05-13T07:34:48.493Z,19.20
2023-05-13T07:37:15.544Z,18.60
2023-05-13T07:39:45.111Z,18.20
2023-05-13T07:42:12.147Z,17.70
2023-05-13T07:44:39.557Z,17.40
2023-05-13T07:47:06.831Z,17.20
2023-05-13T07:49:34.253Z,16.90
2023-05-13T07:52:01.441Z,16.60
2023-05-13T07:54:28.838Z,16.30
2023-05-13T07:56:56.078Z,16.00
2023-05-13T07:59:23.533Z,15.60
2023-05-13T08:01:51.390Z,15.50
2023-05-13T08:04:21.116Z,15.20
2023-05-13T08:06:50.546Z,15.10
2023-05-13T08:09:17.941Z,15.20
2023-05-13T08:11:45.254Z,15.20
2023-05-13T08:14:12.582Z,15.20
2023-05-13T08:16:42.191Z,15.20
2023-05-13T08:19:09.975Z,15.30
2023-05-13T08:21:37.060Z,15.20
2023-05-13T08:24:07.071Z,15.30
2023-05-13T08:26:34.345Z,15.20
2023-05-13T08:29:04.401Z,15.00
2023-05-13T08:31:31.598Z,15.10
2023-05-13T08:33:59.099Z,15.80
2023-05-13T08:36:26.208Z,15.30
2023-05-13T08:38:53.570Z,15.30
2023-05-13T08:41:29.714Z,15.40
2023-05-13T08:43:58.610Z,15.50
2023-05-13T08:46:31.872Z,15.70
2023-05-13T08:48:59.868Z,15.60
2023-05-13T08:51:26.986Z,15.70
2023-05-13T08:53:56.235Z,15.80
2023-05-13T08:56:23.312Z,16.00
2023-05-13T08:58:53.138Z,18.30
2023-05-13T09:01:26.584Z,16.30
2023-05-13T09:04:06.889Z,16.30
2023-05-13T09:06:34.000Z,16.40
2023-05-13T09:09:01.660Z,16.50
2023-05-13T09:11:29.309Z,16.50
2023-05-13T09:14:03.357Z,16.50
2023-05-13T09:16:31.078Z,16.60
2023-05-13T09:19:00.632Z,16.70
2023-05-13T09:21:32.179Z,16.90
2023-05-13T09:24:11.390Z,16.90
2023-05-13T09:26:42.303Z,17.20
2023-05-13T09:29:21.659Z,17.30
2023-05-13T09:31:56.672Z,17.40
2023-05-13T09:34:34.851Z,17.60
2023-05-13T09:37:06.790Z,17.70
2023-05-13T09:39:44.294Z,17.80
2023-05-13T09:42:18.873Z,17.80
2023-05-13T09:44:46.933Z,17.90
2023-05-13T09:47:15.024Z,18.00
2023-05-13T09:49:44.762Z,18.00
2023-05-13T09:52:17.191Z,17.80
2023-05-13T09:54:47.694Z,17.90
2023-05-13T09:57:15.215Z,17.20
2023-05-13T09:59:42.628Z,17.80
2023-05-13T10:02:15.269Z,17.70
2023-05-13T10:04:45.630Z,17.60
2023-05-13T10:07:13.025Z,17.70
2023-05-13T10:09:45.884Z,17.40
2023-05-13T10:12:14.892Z,17.30
2023-05-13T10:14:43.487Z,17.30
2023-05-13T10:17:14.337Z,17.60
2023-05-13T10:19:42.365Z,17.60
2023-05-13T10:22:13.502Z,17.60
2023-05-13T10:24:44.106Z,17.90
2023-05-13T10:27:12.138Z,17.80
2023-05-13T10:29:40.732Z,18.10
2023-05-13T10:32:09.084Z,18.40
2023-05-13T10:34:38.745Z,18.50
2023-05-13T10:37:29.567Z,18.60
2023-05-13T10:40:16.578Z,18.50
2023-05-13T10:42:51.759Z,18.30
2023-05-13T10:45:25.627Z,18.10
2023-05-13T10:47:54.711Z,18.00
2023-05-13T10:50:25.464Z,17.80
2023-05-13T10:52:56.513Z,17.60
2023-05-13T10:55:27.456Z,17.30
2023-05-13T10:58:12.079Z,17.10
2023-05-13T11:00:41.972Z,16.90
2023-05-13T11:03:28.774Z,17.00
2023-05-13T11:06:13.919Z,17.00
2023-05-13T11:08:50.675Z,17.20
2023-05-13T11:11:18.728Z,17.00
2023-05-13T11:13:45.961Z,16.90
2023-05-13T11:16:13.816Z,16.70
2023-05-13T11:18:45.491Z,16.80
2023-05-13T11:21:13.230Z,16.90
2023-05-13T11:24:01.097Z,16.90
2023-05-13T11:26:54.495Z,17.00
2023-05-13T11:29:30.128Z,17.10
2023-05-13T11:32:00.081Z,17.20
2023-05-13T11:34:28.178Z,17.20
2023-05-13T11:37:04.559Z,17.10
2023-05-13T11:39:33.005Z,17.00
2023-05-13T11:42:01.027Z,16.70
2023-05-13T11:44:28.371Z,16.70
2023-05-13T11:47:00.151Z,16.70
2023-05-13T11:49:45.809Z,16.70
2023-05-13T11:52:14.072Z,16.80
2023-05-13T11:54:42.953Z,17.00
2023-05-13T11:57:23.222Z,17.00
2023-05-13T11:59:58.621Z,17.10
2023-05-13T12:02:34.412Z,17.30
2023-05-13T12:05:06.390Z,17.30
2023-05-13T12:07:37.488Z,17.30
2023-05-13T12:10:06.250Z,17.10
2023-05-13T12:12:37.457Z,17.00
2023-05-13T12:15:07.360Z,17.10
2023-05-13T12:17:35.038Z,17.00
2023-05-13T12:20:18.258Z,17.00
2023-05-13T12:22:45.574Z,17.20
2023-05-13T12:25:37.417Z,17.00
2023-05-13T12:28:17.197Z,17.10
2023-05-13T12:30:49.380Z,16.00
2023-05-13T12:33:21.063Z,16.80
2023-05-13T12:35:54.959Z,17.00
2023-05-13T12:38:24.178Z,16.90
2023-05-13T12:40:53.863Z,17.20
2023-05-13T12:43:21.229Z,16.70
2023-05-13T12:45:52.358Z,16.70
2023-05-13T12:48:25.548Z,16.80
2023-05-13T12:50:52.665Z,17.00
2023-05-13T12:53:20.046Z,17.20
2023-05-13T12:55:47.093Z,17.30
2023-05-13T12:58:14.460Z,17.40
2023-05-13T13:00:41.597Z,17.60
2023-05-13T13:03:11.553Z,17.70
2023-05-13T13:05:41.238Z,18.00
2023-05-13T13:08:08.761Z,18.20
2023-05-13T13:10:38.366Z,18.40
2023-05-13T13:13:05.746Z,18.50
2023-05-13T13:18:01.151Z,18.60
2023-05-13T13:20:28.289Z,18.60
2023-05-13T13:23:00.299Z,18.50
2023-05-13T13:25:27.478Z,18.50
2023-05-13T13:27:55.227Z,18.70
2023-05-13T13:30:24.889Z,18.90
2023-05-13T13:32:52.529Z,19.20
2023-05-13T13:35:19.787Z,19.40
2023-05-13T13:37:49.569Z,19.60
2023-05-13T13:40:16.607Z,19.60
2023-05-13T13:42:45.407Z,19.60
2023-05-13T13:45:15.424Z,19.60
2023-05-13T13:47:42.875Z,19.60
2023-05-13T13:50:15.080Z,19.60
2023-05-13T13:52:42.456Z,19.60
2023-05-13T13:55:09.782Z,19.60
2023-05-13T13:57:39.621Z,19.60
2023-05-13T14:00:07.468Z,19.70
2023-05-13T14:02:37.139Z,19.80
2023-05-13T14:05:07.018Z,19.80
2023-05-13T14:07:36.802Z,19.60
2023-05-13T14:10:05.609Z,19.30
2023-05-13T14:12:35.397Z,19.10
2023-05-13T14:15:02.615Z,19.00
2023-05-13T14:17:32.822Z,19.10
2023-05-13T14:19:59.905Z,19.20
2023-05-13T14:22:29.877Z,19.30
2023-05-13T14:24:59.464Z,19.40
2023-05-13T14:27:26.960Z,19.40
2023-05-13T14:29:54.474Z,19.60
2023-05-13T14:32:21.884Z,19.70
2023-05-13T14:34:49.038Z,19.60
2023-05-13T14:37:16.446Z,19.30
2023-05-13T14:39:43.619Z,19.10
2023-05-13T14:42:11.049Z,18.60
2023-05-13T14:44:38.514Z,18.30
2023-05-13T14:47:10.228Z,17.90
2023-05-13T14:49:39.631Z,17.40
2023-05-13T14:52:09.733Z,17.00
2023-05-13T14:54:36.868Z,16.60
2023-05-13T14:57:05.954Z,16.30
2023-05-13T14:59:35.433Z,16.00
2023-05-13T15:02:03.711Z,15.90
2023-05-13T15:04:30.926Z,15.70
2023-05-13T15:06:58.581Z,15.50
2023-05-13T15:09:25.732Z,15.50
2023-05-13T15:11:55.281Z,15.50
2023-05-13T15:14:26.029Z,15.50
2023-05-13T15:16:53.742Z,15.60
2023-05-13T15:19:23.473Z,15.70
2023-05-13T15:21:52.930Z,15.70
2023-05-13T15:24:20.340Z,15.80
2023-05-13T15:26:49.483Z,15.90
2023-05-13T15:29:19.408Z,15.90
2023-05-13T15:31:49.394Z,16.00
2023-05-13T15:34:17.054Z,16.00
2023-05-13T15:36:46.579Z,16.00
2023-05-13T15:39:14.168Z,16.10
2023-05-13T15:41:43.734Z,16.10
2023-05-13T15:44:11.153Z,16.20
2023-05-13T15:46:38.292Z,16.10
2023-05-13T15:49:05.716Z,16.10
2023-05-13T15:51:32.820Z,16.10
2023-05-13T15:54:00.273Z,16.20
2023-05-13T15:56:32.764Z,16.10
2023-05-13T15:59:02.601Z,16.20
2023-05-13T16:01:31.234Z,16.10
2023-05-13T16:04:00.391Z,16.10
2023-05-13T16:06:27.496Z,16.10
2023-05-13T16:08:56.430Z,16.00
2023-05-13T16:11:23.861Z,16.00
2023-05-13T16:13:53.437Z,16.00
2023-05-13T16:16:23.448Z,15.90
2023-05-13T16:18:53.559Z,15.90
2023-05-13T16:21:22.907Z,15.90
2023-05-13T16:23:50.762Z,15.90
2023-05-13T16:26:18.064Z,15.90
2023-05-13T16:28:48.854Z,15.80
2023-05-13T16:31:16.363Z,15.80
2023-05-13T16:33:47.140Z,15.70
2023-05-13T16:36:22.787Z,15.70
2023-05-13T16:38:52.640Z,15.70
2023-05-13T16:41:19.736Z,15.70
2023-05-13T16:43:49.553Z,15.70
2023-05-13T16:46:19.265Z,15.70
2023-05-13T16:48:49.001Z,15.70
2023-05-13T16:51:18.557Z,15.70
2023-05-13T16:53:45.945Z,15.80
2023-05-13T16:56:12.983Z,15.80
2023-05-13T16:58:45.062Z,15.70
2023-05-13T17:01:12.127Z,15.70
2023-05-13T17:03:39.580Z,15.70
2023-05-13T17:06:09.194Z,15.70
2023-05-13T17:08:38.875Z,15.70
2023-05-13T17:11:08.197Z,15.60
2023-05-13T17:13:37.768Z,15.50
2023-05-13T17:16:05.166Z,15.50
2023-05-13T17:18:32.570Z,15.50
2023-05-13T17:20:59.708Z,15.50
2023-05-13T17:23:31.939Z,15.40
2023-05-13T17:25:59.065Z,15.30
2023-05-13T17:28:26.385Z,15.30
2023-05-13T17:30:53.433Z,15.30
2023-05-13T17:33:23.384Z,15.20
2023-05-13T17:35:50.423Z,15.20
2023-05-13T17:38:18.114Z,15.20
2023-05-13T17:40:45.326Z,15.10
2023-05-13T17:43:14.277Z,15.10
2023-05-13T17:45:41.860Z,15.10
2023-05-13T17:48:09.359Z,15.10
2023-05-13T17:50:39.711Z,15.00
2023-05-13T17:53:09.667Z,15.00
2023-05-13T17:55:36.920Z,15.00
2023-05-13T17:58:04.279Z,15.00
2023-05-13T18:00:31.350Z,14.90
2023-05-13T18:02:58.801Z,14.90
2023-05-13T18:05:26.169Z,14.90
2023-05-13T18:07:58.015Z,14.80
2023-05-13T18:10:25.252Z,14.80
2023-05-13T18:12:52.894Z,14.70
2023-05-13T18:15:20.354Z,14.60
2023-05-13T18:17:50.086Z,14.60
2023-05-13T18:20:22.305Z,14.60
2023-05-13T18:22:52.018Z,14.50
2023-05-13T18:25:19.503Z,14.50
2023-05-13T18:27:48.868Z,14.40
2023-05-13T18:30:17.101Z,14.30
2023-05-13T18:32:44.336Z,14.30
2023-05-13T18:35:14.180Z,14.30
2023-05-13T18:37:41.265Z,14.20
2023-05-13T18:40:09.313Z,14.20
2023-05-13T18:42:40.912Z,14.20
2023-05-13T18:45:09.662Z,14.10
2023-05-13T18:47:39.242Z,14.00
2023-05-13T18:50:09.515Z,14.00
2023-05-13T18:52:36.588Z,13.90
2023-05-13T18:55:04.709Z,13.80
2023-05-13T18:57:31.899Z,13.80
2023-05-13T18:59:59.316Z,13.70
2023-05-13T19:02:28.844Z,13.70
2023-05-13T19:04:58.787Z,13.70
2023-05-13T19:07:26.012Z,13.60
2023-05-13T19:09:53.381Z,13.50
2023-05-13T19:12:20.491Z,13.40
2023-05-13T19:14:47.888Z,13.40
2023-05-13T19:17:15.081Z,13.20
2023-05-13T19:19:42.520Z,13.10
2023-05-13T19:22:09.706Z,13.00
2023-05-13T19:24:37.015Z,12.90
2023-05-13T19:27:07.283Z,12.80
2023-05-13T19:29:34.950Z,12.80
2023-05-13T19:32:02.056Z,12.70
2023-05-13T19:34:34.083Z,12.60
2023-05-13T19:37:01.250Z,12.60
2023-05-13T19:39:28.665Z,12.50
2023-05-13T19:41:57.942Z,12.50
2023-05-13T19:44:25.315Z,12.40
2023-05-13T19:46:52.665Z,12.30
2023-05-13T19:49:22.679Z,12.30
2023-05-13T19:51:49.740Z,12.20
2023-05-13T19:54:17.118Z,12.20
2023-05-13T19:56:44.162Z,12.20
2023-05-13T19:59:11.528Z,12.20
2023-05-13T20:01:40.959Z,12.10
2023-05-13T20:04:09.170Z,12.00
2023-05-13T20:06:38.681Z,12.00
2023-05-13T20:09:06.524Z,12.00
2023-05-13T20:11:33.583Z,11.90
2023-05-13T20:14:05.738Z,11.80
2023-05-13T20:16:32.809Z,11.70
2023-05-13T20:19:02.616Z,11.70
2023-05-13T20:21:30.012Z,11.70
2023-05-13T20:23:57.310Z,11.50
2023-05-13T20:26:24.452Z,11.50
2023-05-13T20:28:51.808Z,11.40
2023-05-13T20:31:18.892Z,11.40
2023-05-13T20:33:48.532Z,11.30
2023-05-13T20:36:15.765Z,11.20
2023-05-13T20:38:43.386Z,11.20
2023-05-13T20:41:10.507Z,11.20
2023-05-13T20:43:37.573Z,11.10
2023-05-13T20:46:05.762Z,11.10
2023-05-13T20:48:33.291Z,11.10
2023-05-13T20:51:06.245Z,11.10
2023-05-13T20:53:33.950Z,11.00
2023-05-13T20:56:03.182Z,11.00
2023-05-13T20:58:30.483Z,11.00
2023-05-13T21:01:00.296Z,10.90
2023-05-13T21:03:27.428Z,10.90
2023-05-13T21:05:57.174Z,10.90
2023-05-13T21:08:24.229Z,10.80
2023-05-13T21:10:51.653Z,10.80
2023-05-13T21:13:18.631Z,10.70
2023-05-13T21:15:46.203Z,10.70
2023-05-13T21:18:13.260Z,10.60
2023-05-13T21:20:48.026Z,10.60
2023-05-13T21:23:20.594Z,10.60
2023-05-13T21:25:50.213Z,10.60
2023-05-13T21:28:20.036Z,10.50
2023-05-13T21:30:47.405Z,10.50
2023-05-13T21:33:16.906Z,10.40
2023-05-13T21:35:46.695Z,10.40
2023-05-13T21:38:16.324Z,10.30
2023-05-13T21:40:44.023Z,10.30
2023-05-13T21:43:13.501Z,10.20
2023-05-13T21:45:43.274Z,10.20
2023-05-13T21:48:10.369Z,10.10
2023-05-13T21:50:37.787Z,10.10
2023-05-13T21:53:04.817Z,9.90
2023-05-13T21:55:34.919Z,10.10
2023-05-13T21:58:02.365Z,10.00
2023-05-13T22:00:29.899Z,10.00
2023-05-13T22:02:59.665Z,9.90
2023-05-13T22:05:27.510Z,10.00
2023-05-13T22:07:54.610Z,9.90
2023-05-13T22:10:22.174Z,9.90
2023-05-13T22:12:49.354Z,9.90
2023-05-13T22:15:16.766Z,9.90
2023-05-13T22:17:50.640Z,9.80
2023-05-13T22:20:20.984Z,9.80
2023-05-13T22:22:48.163Z,9.70
2023-05-13T22:25:17.939Z,9.60
2023-05-13T22:27:46.367Z,9.60
2023-05-13T22:30:13.863Z,9.60
2023-05-13T22:32:40.915Z,9.60
2023-05-13T22:35:13.396Z,9.60
2023-05-13T22:37:40.610Z,9.60
2023-05-13T22:40:09.975Z,9.60
2023-05-13T22:42:37.246Z,9.60
2023-05-13T22:45:05.027Z,9.60
2023-05-13T22:47:32.121Z,9.60
2023-05-13T22:52:26.849Z,9.60
2023-05-13T22:54:54.176Z,9.50
2023-05-13T22:57:23.455Z,9.40
2023-05-13T22:59:50.821Z,9.40
2023-05-13T23:04:48.112Z,9.30
2023-05-13T23:09:43.233Z,9.30
2023-05-13T23:12:12.576Z,9.30
2023-05-13T23:14:40.071Z,9.30
2023-05-13T23:17:07.218Z,9.30
2023-05-13T23:19:34.547Z,9.30
2023-05-13T23:22:04.178Z,9.20
2023-05-13T23:24:31.502Z,12.30
2023-05-13T23:26:58.584Z,9.40
2023-05-13T23:29:25.908Z,9.40
2023-05-13T23:31:54.032Z,9.40
2023-05-13T23:34:21.505Z,9.40
2023-05-13T23:36:50.796Z,9.40
2023-05-13T23:39:18.143Z,9.40
2023-05-13T23:41:45.188Z,9.40
2023-05-13T23:44:12.488Z,9.50
2023-05-13T23:46:39.503Z,9.70
2023-05-13T23:49:09.836Z,9.50
2023-05-13T23:54:06.824Z,9.60
2023-05-13T23:56:34.606Z,9.60
2023-05-13T23:59:04.912Z,9.60
